Wetterstation Vordersexau
Wetterdaten: Woche 24.01.11 - 30.01.11 (KW4)
Datum Zeit Temp. A. Feuchte A. Luftdruck Regen Wind Richtung Taupunkt Windchill Windben
24.01.2011 00:00 -5,6 C 88 % 1023,7 hPa 0,0 l/m 0,0 km/h SO -7,3 C -5,6 C 0,0 km/h
24.01.2011 01:00 -4,5 C 88 % 1023,5 hPa 0,0 l/m 0,0 km/h SO -6,2 C -4,5 C 0,0 km/h
24.01.2011 02:00 -3,6 C 88 % 1023,6 hPa 0,0 l/m 0,0 km/h SO -5,3 C -3,6 C 0,0 km/h
24.01.2011 03:00 -3,1 C 88 % 1023,4 hPa 0,0 l/m 0,0 km/h SO -4,8 C -3,1 C 0,0 km/h
24.01.2011 04:00 -2,7 C 87 % 1023,5 hPa 0,0 l/m 0,0 km/h W-SW -4,6 C -2,7 C 0,0 km/h
24.01.2011 05:00 -2,5 C 87 % 1023,4 hPa 0,0 l/m 0,0 km/h S-SW -4,4 C -2,5 C 0,0 km/h
24.01.2011 06:00 -2,2 C 88 % 1023,6 hPa 0,0 l/m 0,0 km/h SW -3,9 C -2,2 C 0,0 km/h
24.01.2011 07:00 -2,2 C 87 % 1024,0 hPa 0,0 l/m 0,0 km/h W-NW -4,1 C -2,2 C 0,0 km/h
24.01.2011 08:00 -2,2 C 86 % 1024,2 hPa 0,0 l/m 0,0 km/h W -4,2 C -2,2 C 0,0 km/h
24.01.2011 09:00 -1,6 C 85 % 1024,2 hPa 0,0 l/m 0,0 km/h W -3,8 C -1,6 C 0,0 km/h
24.01.2011 10:00 -0,3 C 83 % 1024,2 hPa 0,0 l/m 0,0 km/h W -2,8 C -0,3 C 0,0 km/h
24.01.2011 11:00 0,9 C 78 % 1024,1 hPa 0,0 l/m 0,0 km/h SW -2,5 C 0,9 C 0,0 km/h
24.01.2011 12:00 1,1 C 75 % 1023,8 hPa 0,0 l/m 0,0 km/h S-SO -2,8 C 1,1 C 0,0 km/h
24.01.2011 13:00 2,1 C 72 % 1022,9 hPa 0,0 l/m 0,0 km/h O -2,4 C 2,1 C 0,0 km/h
24.01.2011 14:00 2,7 C 71 % 1022,1 hPa 0,0 l/m 0,0 km/h NW -2,0 C 2,7 C 0,0 km/h
24.01.2011 15:00 2,6 C 71 % 1021,8 hPa 0,0 l/m 0,0 km/h NW -2,1 C 2,6 C 0,0 km/h
24.01.2011 16:00 1,7 C 73 % 1021,6 hPa 0,0 l/m 0,0 km/h NW -2,6 C 1,7 C 0,0 km/h
24.01.2011 17:00 0,8 C 78 % 1021,7 hPa 0,0 l/m 0,0 km/h NW -2,6 C 0,8 C 0,0 km/h
24.01.2011 18:00 0,5 C 81 % 1021,8 hPa 0,0 l/m 0,0 km/h NW -2,4 C 0,5 C 0,0 km/h
24.01.2011 19:00 0,4 C 82 % 1021,8 hPa 0,0 l/m 0,0 km/h N-NW -2,3 C 0,4 C 0,0 km/h
24.01.2011 20:00 0,4 C 82 % 1021,6 hPa 0,0 l/m 0,0 km/h N-NW -2,3 C 0,4 C 0,0 km/h
24.01.2011 21:00 0,3 C 84 % 1021,0 hPa 0,0 l/m 0,0 km/h N-NW -2,1 C 0,3 C 0,0 km/h
24.01.2011 22:00 0,3 C 84 % 1020,6 hPa 0,0 l/m 0,0 km/h N-NW -2,1 C 0,3 C 0,0 km/h
24.01.2011 23:00 0,3 C 85 % 1020,2 hPa 0,0 l/m 0,0 km/h O-SO -1,9 C 0,3 C 0,0 km/h
25.01.2011 00:00 0,4 C 86 % 1019,9 hPa 0,0 l/m 0,0 km/h O-SO -1,7 C 0,4 C 0,0 km/h
25.01.2011 01:00 0,2 C 87 % 1019,3 hPa 0,0 l/m 0,0 km/h NO -1,7 C 0,2 C 0,0 km/h
25.01.2011 02:00 0,1 C 86 % 1019,4 hPa 0,0 l/m 0,0 km/h NO -2,0 C 0,1 C 0,0 km/h
25.01.2011 03:00 0,1 C 86 % 1019,0 hPa 0,0 l/m 0,0 km/h O -2,0 C 0,1 C 0,0 km/h
25.01.2011 04:00 0,1 C 86 % 1018,5 hPa 0,0 l/m 0,0 km/h O-NO -2,0 C 0,1 C 0,0 km/h
25.01.2011 05:00 -0,1 C 87 % 1018,1 hPa 0,0 l/m 0,0 km/h O-NO -2,0 C -0,1 C 0,0 km/h
25.01.2011 06:00 -0,1 C 88 % 1017,8 hPa 0,0 l/m 0,0 km/h O -1,8 C -0,1 C 0,0 km/h
25.01.2011 07:00 0,1 C 89 % 1017,8 hPa 0,0 l/m 0,0 km/h O -1,5 C 0,1 C 0,0 km/h
25.01.2011 08:00 0,2 C 89 % 1017,6 hPa 0,0 l/m 0,0 km/h O -1,4 C 0,2 C 0,0 km/h
25.01.2011 09:00 0,5 C 88 % 1017,5 hPa 0,0 l/m 0,0 km/h S-SO -1,3 C 0,5 C 0,0 km/h
25.01.2011 10:00 1,1 C 88 % 1017,4 hPa 0,0 l/m 3,9 km/h S-SO -0,7 C 1,1 C 2,2 km/h
25.01.2011 11:00 3,9 C 87 % 1016,7 hPa 0,0 l/m 0,0 km/h S 1,9 C 3,9 C 0,0 km/h
25.01.2011 12:00 5,3 C 83 % 1015,7 hPa 0,7 l/m 0,0 km/h W-SW 2,7 C 5,3 C 0,0 km/h
25.01.2011 13:00 5,4 C 74 % 1014,0 hPa 0,7 l/m 24,0 km/h W-SW 1,1 C -4,1 C 13,3 km/h
25.01.2011 14:00 4,6 C 76 % 1013,5 hPa 0,4 l/m 24,0 km/h W-SW 0,7 C -5,2 C 13,3 km/h
25.01.2011 15:00 3,4 C 78 % 1013,0 hPa 0,0 l/m 42,1 km/h W-SW -0,1 C -11,3 C 23,4 km/h
25.01.2011 16:00 2,5 C 80 % 1012,9 hPa 0,0 l/m 24,0 km/h SW -0,6 C -8,0 C 13,3 km/h
25.01.2011 17:00 2,2 C 81 % 1012,6 hPa 0,0 l/m 20,1 km/h W -0,7 C -6,8 C 11,2 km/h
25.01.2011 18:00 2,3 C 82 % 1012,2 hPa 0,0 l/m 34,3 km/h W-SW -0,4 C -11,3 C 19,1 km/h
25.01.2011 19:00 1,8 C 85 % 1012,0 hPa 0,0 l/m 18,8 km/h W -0,4 C -6,8 C 10,4 km/h
25.01.2011 20:00 1,9 C 85 % 1011,9 hPa 0,0 l/m 46,7 km/h S-SW -0,3 C -14,3 C 25,9 km/h
25.01.2011 21:00 2,4 C 84 % 1011,8 hPa 0,0 l/m 34,3 km/h W-SW -0,0 C -11,1 C 19,1 km/h
25.01.2011 22:00 2,4 C 84 % 1011,5 hPa 0,0 l/m 20,7 km/h S-SW -0,0 C -6,8 C 11,5 km/h
25.01.2011 23:00 2,4 C 84 % 1011,2 hPa 0,0 l/m 25,3 km/h W-SW -0,0 C -8,6 C 14,0 km/h
26.01.2011 00:00 2,4 C 84 % 1010,6 hPa 0,0 l/m 11,0 km/h SW -0,0 C -1,5 C 6,1 km/h
26.01.2011 01:00 1,9 C 86 % 1010,0 hPa 0,0 l/m 34,3 km/h W-SW -0,2 C -11,9 C 19,1 km/h
26.01.2011 02:00 2,4 C 85 % 1009,6 hPa 0,4 l/m 22,0 km/h SW 0,1 C -7,4 C 12,2 km/h
26.01.2011 03:00 2,6 C 84 % 1009,0 hPa 0,0 l/m 25,9 km/h SW 0,2 C -8,5 C 14,4 km/h
26.01.2011 04:00 2,7 C 84 % 1008,8 hPa 0,0 l/m 25,3 km/h S-SW 0,3 C -8,2 C 14,0 km/h
26.01.2011 05:00 2,7 C 84 % 1008,4 hPa 0,0 l/m 22,0 km/h W 0,3 C -7,0 C 12,2 km/h
26.01.2011 06:00 2,4 C 85 % 1008,1 hPa 0,0 l/m 9,1 km/h W-SW 0,1 C -0,1 C 5,0 km/h
26.01.2011 07:00 1,9 C 88 % 1007,8 hPa 0,0 l/m 23,3 km/h SW 0,1 C -8,5 C 13,0 km/h
26.01.2011 08:00 1,6 C 88 % 1007,5 hPa 0,7 l/m 9,1 km/h S-SO -0,2 C -0,9 C 5,0 km/h
26.01.2011 09:00 1,6 C 88 % 1007,2 hPa 0,4 l/m 0,0 km/h SW -0,2 C 1,6 C 0,0 km/h
26.01.2011 10:00 2,6 C 89 % 1006,9 hPa 0,4 l/m 1,9 km/h W-SW 1,0 C 2,6 C 1,1 km/h
26.01.2011 11:00 2,7 C 88 % 1006,8 hPa 0,4 l/m 12,3 km/h S 0,9 C -2,1 C 6,8 km/h
26.01.2011 12:00 2,6 C 88 % 1006,5 hPa 0,4 l/m 14,3 km/h W-SW 0,8 C -3,4 C 7,9 km/h
26.01.2011 13:00 2,9 C 88 % 1005,8 hPa 0,4 l/m 4,5 km/h SW 1,1 C 2,9 C 2,5 km/h
26.01.2011 14:00 3,1 C 89 % 1005,4 hPa 0,4 l/m 3,9 km/h SO 1,5 C 3,1 C 2,2 km/h
26.01.2011 15:00 3,2 C 88 % 1005,7 hPa 0,4 l/m 0,0 km/h SO 1,4 C 3,2 C 0,0 km/h
26.01.2011 16:00 2,7 C 88 % 1005,9 hPa 0,4 l/m 0,0 km/h SO 0,9 C 2,7 C 0,0 km/h
26.01.2011 17:00 2,4 C 88 % 1006,3 hPa 0,4 l/m 2,6 km/h O-SO 0,6 C 2,4 C 1,4 km/h
26.01.2011 18:00 1,9 C 88 % 1006,5 hPa 0,4 l/m 0,0 km/h O 0,1 C 1,9 C 0,0 km/h
26.01.2011 19:00 1,5 C 88 % 1006,9 hPa 0,0 l/m 0,0 km/h SO -0,3 C 1,5 C 0,0 km/h
26.01.2011 20:00 1,1 C 87 % 1007,4 hPa 0,0 l/m 0,0 km/h SO -0,8 C 1,1 C 0,0 km/h
26.01.2011 21:00 1,4 C 87 % 1007,8 hPa 0,0 l/m 0,0 km/h SO -0,5 C 1,4 C 0,0 km/h
26.01.2011 22:00 1,6 C 87 % 1008,0 hPa 0,0 l/m 0,0 km/h O-SO -0,3 C 1,6 C 0,0 km/h
26.01.2011 23:00 1,6 C 87 % 1008,3 hPa 0,0 l/m 0,0 km/h O -0,3 C 1,6 C 0,0 km/h
27.01.2011 00:00 1,4 C 86 % 1008,5 hPa 0,4 l/m 0,0 km/h O -0,7 C 1,4 C 0,0 km/h
27.01.2011 01:00 1,0 C 87 % 1008,8 hPa 0,0 l/m 0,0 km/h O -0,9 C 1,0 C 0,0 km/h
27.01.2011 02:00 1,1 C 87 % 1008,6 hPa 0,0 l/m 0,0 km/h O -0,8 C 1,1 C 0,0 km/h
27.01.2011 03:00 1,0 C 87 % 1008,8 hPa 0,0 l/m 0,0 km/h O-SO -0,9 C 1,0 C 0,0 km/h
27.01.2011 04:00 1,1 C 87 % 1009,1 hPa 0,0 l/m 0,0 km/h O-SO -0,8 C 1,1 C 0,0 km/h
27.01.2011 05:00 1,1 C 87 % 1009,4 hPa 0,0 l/m 0,0 km/h O-SO -0,8 C 1,1 C 0,0 km/h
27.01.2011 06:00 1,3 C 86 % 1010,1 hPa 0,0 l/m 0,0 km/h O-SO -0,8 C 1,3 C 0,0 km/h
27.01.2011 07:00 1,2 C 87 % 1010,5 hPa 0,0 l/m 0,0 km/h O-SO -0,7 C 1,2 C 0,0 km/h
27.01.2011 08:00 1,3 C 86 % 1010,8 hPa 0,0 l/m 0,0 km/h O-SO -0,8 C 1,3 C 0,0 km/h
27.01.2011 09:00 1,6 C 86 % 1011,3 hPa 0,0 l/m 0,0 km/h O-SO -0,5 C 1,6 C 0,0 km/h
27.01.2011 10:00 1,9 C 86 % 1011,8 hPa 0,0 l/m 0,0 km/h W-NW -0,2 C 1,9 C 0,0 km/h
27.01.2011 11:00 2,6 C 86 % 1012,0 hPa 0,0 l/m 0,0 km/h N-NW 0,5 C 2,6 C 0,0 km/h
27.01.2011 12:00 2,8 C 88 % 1012,2 hPa 0,0 l/m 0,0 km/h NW 1,0 C 2,8 C 0,0 km/h
27.01.2011 13:00 2,9 C 89 % 1012,0 hPa 0,0 l/m 0,0 km/h NW 1,3 C 2,9 C 0,0 km/h
27.01.2011 14:00 2,6 C 88 % 1011,7 hPa 0,0 l/m 0,0 km/h NW 0,8 C 2,6 C 0,0 km/h
27.01.2011 15:00 2,4 C 88 % 1011,6 hPa 0,0 l/m 0,0 km/h NO 0,6 C 2,4 C 0,0 km/h
27.01.2011 16:00 2,1 C 89 % 1011,8 hPa 0,0 l/m 0,0 km/h NO 0,5 C 2,1 C 0,0 km/h
27.01.2011 17:00 1,9 C 89 % 1011,8 hPa 0,0 l/m 0,0 km/h O 0,3 C 1,9 C 0,0 km/h
27.01.2011 18:00 1,6 C 88 % 1012,3 hPa 0,0 l/m 0,0 km/h O-SO -0,2 C 1,6 C 0,0 km/h
27.01.2011 19:00 1,2 C 88 % 1012,4 hPa 0,0 l/m 0,0 km/h O-NO -0,6 C 1,2 C 0,0 km/h
27.01.2011 20:00 1,3 C 87 % 1012,7 hPa 0,0 l/m 0,0 km/h O-NO -0,6 C 1,3 C 0,0 km/h
27.01.2011 21:00 1,3 C 84 % 1012,6 hPa 0,0 l/m 0,0 km/h O-NO -1,1 C 1,3 C 0,0 km/h
27.01.2011 22:00 0,8 C 84 % 1012,6 hPa 0,0 l/m 0,0 km/h N-NO -1,6 C 0,8 C 0,0 km/h
27.01.2011 23:00 0,6 C 84 % 1012,7 hPa 0,0 l/m 1,9 km/h O-NO -1,8 C 0,6 C 1,1 km/h
28.01.2011 00:00 0,6 C 84 % 1012,6 hPa 0,0 l/m 0,0 km/h O-NO -1,8 C 0,6 C 0,0 km/h
28.01.2011 01:00 0,5 C 83 % 1012,7 hPa 0,0 l/m 11,7 km/h N -2,0 C -4,2 C 6,5 km/h
28.01.2011 02:00 0,4 C 84 % 1012,8 hPa 0,0 l/m 1,9 km/h N-NO -2,0 C 0,4 C 1,1 km/h
28.01.2011 03:00 0,5 C 84 % 1012,7 hPa 0,0 l/m 0,0 km/h NO -1,9 C 0,5 C 0,0 km/h
28.01.2011 04:00 0,6 C 84 % 1012,8 hPa 0,0 l/m 0,0 km/h NO -1,8 C 0,6 C 0,0 km/h
28.01.2011 05:00 1,0 C 82 % 1012,7 hPa 0,0 l/m 0,0 km/h NO -1,7 C 1,0 C 0,0 km/h
28.01.2011 06:00 1,4 C 79 % 1012,9 hPa 0,0 l/m 1,3 km/h O-SO -1,8 C 1,4 C 0,7 km/h
28.01.2011 07:00 1,1 C 78 % 1013,4 hPa 0,0 l/m 0,0 km/h O-NO -2,3 C 1,1 C 0,0 km/h
28.01.2011 08:00 0,9 C 79 % 1013,9 hPa 0,0 l/m 0,0 km/h O-NO -2,3 C 0,9 C 0,0 km/h
28.01.2011 09:00 1,6 C 79 % 1014,4 hPa 0,0 l/m 0,0 km/h S-SO -1,6 C 1,6 C 0,0 km/h
28.01.2011 10:00 1,8 C 77 % 1014,7 hPa 0,0 l/m 0,0 km/h S-SO -1,8 C 1,8 C 0,0 km/h
28.01.2011 11:00 3,3 C 74 % 1014,9 hPa 0,0 l/m 0,0 km/h SO -0,9 C 3,3 C 0,0 km/h
28.01.2011 12:00 4,1 C 71 % 1014,5 hPa 0,0 l/m 23,3 km/h S-SO -0,7 C -5,6 C 13,0 km/h
28.01.2011 13:00 6,3 C 66 % 1014,4 hPa 0,0 l/m 33,7 km/h O-SO 0,4 C -5,4 C 18,7 km/h
28.01.2011 14:00 8,1 C 59 % 1014,0 hPa 0,0 l/m 1,3 km/h O-NO 0,6 C 8,1 C 0,7 km/h
28.01.2011 15:00 7,4 C 55 % 1014,2 hPa 0,0 l/m 0,0 km/h O-NO -1,0 C 7,4 C 0,0 km/h
28.01.2011 16:00 3,9 C 64 % 1014,5 hPa 0,0 l/m 0,0 km/h SO -2,3 C 3,9 C 0,0 km/h
28.01.2011 17:00 1,2 C 73 % 1014,6 hPa 0,0 l/m 0,0 km/h NO -3,1 C 1,2 C 0,0 km/h
28.01.2011 18:00 0,2 C 75 % 1015,2 hPa 0,0 l/m 0,0 km/h SO -3,7 C 0,2 C 0,0 km/h
28.01.2011 19:00 0,1 C 77 % 1015,3 hPa 0,0 l/m 7,1 km/h SO -3,4 C -0,6 C 4,0 km/h
28.01.2011 20:00 0,2 C 76 % 1015,4 hPa 0,0 l/m 0,0 km/h SO -3,5 C 0,2 C 0,0 km/h
28.01.2011 21:00 -0,2 C 76 % 1015,5 hPa 0,0 l/m 0,0 km/h SO -3,9 C -0,2 C 0,0 km/h
28.01.2011 22:00 -0,8 C 78 % 1015,4 hPa 0,0 l/m 0,0 km/h SO -4,1 C -0,8 C 0,0 km/h
28.01.2011 23:00 -0,7 C 79 % 1015,6 hPa 0,0 l/m 0,0 km/h SO -3,9 C -0,7 C 0,0 km/h
29.01.2011 00:00 -1,1 C 81 % 1015,5 hPa 0,0 l/m 0,0 km/h SO -3,9 C -1,1 C 0,0 km/h
29.01.2011 01:00 -1,2 C 81 % 1015,2 hPa 0,0 l/m 0,0 km/h SO -4,0 C -1,2 C 0,0 km/h
29.01.2011 02:00 -1,4 C 81 % 1015,4 hPa 0,0 l/m 1,9 km/h SO -4,2 C -1,4 C 1,1 km/h
29.01.2011 03:00 -1,6 C 81 % 1014,9 hPa 0,0 l/m 7,1 km/h SO -4,4 C -2,4 C 4,0 km/h
29.01.2011 04:00 -1,6 C 81 % 1014,9 hPa 0,0 l/m 0,0 km/h SO -4,4 C -1,6 C 0,0 km/h
29.01.2011 05:00 -1,6 C 81 % 1014,7 hPa 0,0 l/m 10,4 km/h SO -4,4 C -5,6 C 5,8 km/h
29.01.2011 06:00 -1,6 C 80 % 1014,6 hPa 0,0 l/m 0,0 km/h SO -4,6 C -1,6 C 0,0 km/h
29.01.2011 07:00 -1,9 C 80 % 1014,6 hPa 0,0 l/m 2,6 km/h S-SO -4,9 C -1,9 C 1,4 km/h
29.01.2011 08:00 -1,9 C 80 % 1014,8 hPa 0,0 l/m 0,0 km/h O -4,9 C -1,9 C 0,0 km/h
29.01.2011 09:00 -1,4 C 78 % 1014,8 hPa 0,0 l/m 0,0 km/h N-NO -4,7 C -1,4 C 0,0 km/h
29.01.2011 10:00 -0,6 C 76 % 1014,7 hPa 0,0 l/m 0,0 km/h N-NO -4,3 C -0,6 C 0,0 km/h
29.01.2011 11:00 0,5 C 74 % 1014,6 hPa 0,0 l/m 0,0 km/h N-NW -3,6 C 0,5 C 0,0 km/h
29.01.2011 12:00 1,4 C 71 % 1014,0 hPa 0,0 l/m 0,0 km/h W-NW -3,3 C 1,4 C 0,0 km/h
29.01.2011 13:00 2,3 C 69 % 1013,5 hPa 0,0 l/m 0,0 km/h W -2,8 C 2,3 C 0,0 km/h
29.01.2011 14:00 1,9 C 69 % 1012,8 hPa 0,0 l/m 0,0 km/h N-NW -3,2 C 1,9 C 0,0 km/h
29.01.2011 15:00 1,3 C 71 % 1012,7 hPa 0,0 l/m 0,0 km/h W-NW -3,4 C 1,3 C 0,0 km/h
29.01.2011 16:00 0,0 C 78 % 1012,8 hPa 0,0 l/m 2,6 km/h N-NW -3,4 C 0,0 C 1,4 km/h
29.01.2011 17:00 -0,8 C 81 % 1012,8 hPa 0,0 l/m 2,6 km/h W -3,6 C -0,8 C 1,4 km/h
29.01.2011 18:00 -1,1 C 83 % 1013,1 hPa 0,0 l/m 0,0 km/h W-NW -3,6 C -1,1 C 0,0 km/h
29.01.2011 19:00 -1,2 C 84 % 1013,1 hPa 0,0 l/m 0,0 km/h W -3,5 C -1,2 C 0,0 km/h
29.01.2011 20:00 -1,3 C 85 % 1013,3 hPa 0,0 l/m 0,0 km/h W -3,5 C -1,3 C 0,0 km/h
29.01.2011 21:00 -3,1 C 85 % 1013,1 hPa 0,0 l/m 0,0 km/h W -5,3 C -3,1 C 0,0 km/h
29.01.2011 22:00 -3,1 C 88 % 1012,9 hPa 0,0 l/m 0,0 km/h W-NW -4,8 C -3,1 C 0,0 km/h
29.01.2011 23:00 -3,3 C 88 % 1013,2 hPa 0,0 l/m 0,0 km/h SO -5,0 C -3,3 C 0,0 km/h
30.01.2011 00:00 -3,7 C 88 % 1013,3 hPa 0,0 l/m 0,0 km/h SO -5,4 C -3,7 C 0,0 km/h
30.01.2011 01:00 -2,8 C 87 % 1013,3 hPa 0,0 l/m 0,0 km/h O-SO -4,7 C -2,8 C 0,0 km/h
30.01.2011 02:00 -4,4 C 87 % 1013,0 hPa 0,0 l/m 0,0 km/h SO -6,2 C -4,4 C 0,0 km/h
30.01.2011 03:00 -5,1 C 88 % 1012,6 hPa 0,0 l/m 0,0 km/h O-SO -6,8 C -5,1 C 0,0 km/h
30.01.2011 04:00 -5,2 C 88 % 1012,8 hPa 0,0 l/m 0,0 km/h N-NO -6,9 C -5,2 C 0,0 km/h
30.01.2011 05:00 -6,2 C 88 % 1012,9 hPa 0,0 l/m 0,0 km/h O-NO -7,9 C -6,2 C 0,0 km/h
30.01.2011 06:00 -6,9 C 89 % 1013,2 hPa 0,0 l/m 0,0 km/h O-NO -8,4 C -6,9 C 0,0 km/h
30.01.2011 07:00 -6,9 C 89 % 1013,7 hPa 0,0 l/m 0,0 km/h SW -8,4 C -6,9 C 0,0 km/h
30.01.2011 08:00 -5,6 C 89 % 1014,4 hPa 0,0 l/m 0,0 km/h W-SW -7,1 C -5,6 C 0,0 km/h
30.01.2011 09:00 -4,7 C 89 % 1014,6 hPa 0,0 l/m 0,0 km/h W -6,2 C -4,7 C 0,0 km/h
30.01.2011 10:00 -2,9 C 89 % 1014,6 hPa 0,0 l/m 1,3 km/h W-NW -4,5 C -2,9 C 0,7 km/h
30.01.2011 11:00 -0,2 C 79 % 1014,7 hPa 0,0 l/m 0,0 km/h W -3,4 C -0,2 C 0,0 km/h
30.01.2011 12:00 1,2 C 76 % 1014,2 hPa 0,0 l/m 0,0 km/h NW -2,5 C 1,2 C 0,0 km/h
30.01.2011 13:00 2,7 C 70 % 1013,5 hPa 0,0 l/m 1,9 km/h W -2,2 C 2,7 C 1,1 km/h
30.01.2011 14:00 2,5 C 68 % 1013,7 hPa 0,0 l/m 0,0 km/h W -2,8 C 2,5 C 0,0 km/h
30.01.2011 15:00 0,2 C 74 % 1013,6 hPa 0,0 l/m 0,0 km/h W -3,9 C 0,2 C 0,0 km/h
30.01.2011 16:00 -0,1 C 78 % 1013,9 hPa 0,0 l/m 0,0 km/h SW -3,5 C -0,1 C 0,0 km/h
30.01.2011 17:00 -2,2 C 83 % 1014,0 hPa 0,0 l/m 0,0 km/h SO -4,7 C -2,2 C 0,0 km/h
30.01.2011 18:00 -3,5 C 87 % 1014,8 hPa 0,0 l/m 0,0 km/h SO -5,3 C -3,5 C 0,0 km/h
30.01.2011 19:00 -3,9 C 88 % 1015,5 hPa 0,0 l/m 0,0 km/h O-NO -5,6 C -3,9 C 0,0 km/h
30.01.2011 20:00 -2,8 C 88 % 1015,9 hPa 0,0 l/m 0,0 km/h SO -4,5 C -2,8 C 0,0 km/h
30.01.2011 21:00 -3,4 C 88 % 1016,5 hPa 0,0 l/m 0,0 km/h O-SO -5,1 C -3,4 C 0,0 km/h
30.01.2011 22:00 -4,9 C 89 % 1016,7 hPa 0,0 l/m 0,0 km/h SO -6,4 C -4,9 C 0,0 km/h
30.01.2011 23:00 -3,8 C 89 % 1016,9 hPa 0,0 l/m 0,0 km/h O-SO -5,3 C -3,8 C 0,0 km/h
Min-Datum _ 30.01.11 28.01.11 26.01.11 - 24.01.11 - 30.01.11 25.01.11 24.01.11
_ Min-Zeit 06:30 15:30 14:30 - 00:30 - 06:30 20:30 00:30
Minimum _ -6,9 C 55 % 1005,4 hPa - 0,0 km/h - -8,4 C -14,3 C 0,0 km/h
Max-Datum _ 28.01.11 25.01.11 24.01.11 25.01.11 25.01.11 - 25.01.11 28.01.11 25.01.11
_ Max-Zeit 14:30 07:30 08:30 12:30 20:30 - 12:30 14:30 20:30
Maximum _ 8,1 C 89 % 1024,2 hPa 0,7 l/m 46,7 km/h
S-SW
- 2,7 C 8,1 C 25,9 km/h
S-SW
Durchschnitt _ 0,4 C 83 % 1014,2 hPa #6,8 l/m 3,9 km/h SO -2,2 C -1,0 C 2,2 km/h
www.sexauwetter.de